sensor_id;sensor_type;location;lat;lon;timestamp;temperature;humidity
17348;DHT22;8791;50.876;4.342;2022-11-13T00:00:30;10.80;99.90
17348;DHT22;8791;50.876;4.342;2022-11-13T00:02:59;10.60;99.90
17348;DHT22;8791;50.876;4.342;2022-11-13T00:05:25;10.70;99.90
17348;DHT22;8791;50.876;4.342;2022-11-13T00:07:52;10.50;99.90
17348;DHT22;8791;50.876;4.342;2022-11-13T00:10:19;10.60;99.90
17348;DHT22;8791;50.876;4.342;2022-11-13T00:12:46;10.60;99.90
17348;DHT22;8791;50.876;4.342;2022-11-13T00:15:13;10.60;99.90
17348;DHT22;8791;50.876;4.342;2022-11-13T00:17:40;10.50;99.90
17348;DHT22;8791;50.876;4.342;2022-11-13T00:20:08;10.50;99.90
17348;DHT22;8791;50.876;4.342;2022-11-13T00:22:35;10.50;99.90
17348;DHT22;8791;50.876;4.342;2022-11-13T00:25:02;10.50;99.90
17348;DHT22;8791;50.876;4.342;2022-11-13T00:27:30;10.50;99.90
17348;DHT22;8791;50.876;4.342;2022-11-13T00:29:57;10.30;99.90
17348;DHT22;8791;50.876;4.342;2022-11-13T00:32:23;10.30;99.90
17348;DHT22;8791;50.876;4.342;2022-11-13T00:34:51;10.30;99.90
17348;DHT22;8791;50.876;4.342;2022-11-13T00:37:19;10.50;99.90
17348;DHT22;8791;50.876;4.342;2022-11-13T00:39:46;10.70;99.90
17348;DHT22;8791;50.876;4.342;2022-11-13T00:42:12;10.60;99.90
17348;DHT22;8791;50.876;4.342;2022-11-13T00:44:39;10.50;99.90
17348;DHT22;8791;50.876;4.342;2022-11-13T00:47:06;10.30;99.90
17348;DHT22;8791;50.876;4.342;2022-11-13T00:49:33;10.10;99.90
17348;DHT22;8791;50.876;4.342;2022-11-13T00:52:00;10.10;99.90
17348;DHT22;8791;50.876;4.342;2022-11-13T00:54:28;10.30;99.90
17348;DHT22;8791;50.876;4.342;2022-11-13T00:56:55;10.40;99.90
17348;DHT22;8791;50.876;4.342;2022-11-13T00:59:22;10.40;99.90
17348;DHT22;8791;50.876;4.342;2022-11-13T01:01:49;10.30;99.90
17348;DHT22;8791;50.876;4.342;2022-11-13T01:04:16;10.30;99.90
17348;DHT22;8791;50.876;4.342;2022-11-13T01:06:43;10.30;99.90
17348;DHT22;8791;50.876;4.342;2022-11-13T01:09:10;10.20;99.90
17348;DHT22;8791;50.876;4.342;2022-11-13T01:11:38;10.00;99.90
17348;DHT22;8791;50.876;4.342;2022-11-13T01:14:05;10.00;99.90
17348;DHT22;8791;50.876;4.342;2022-11-13T01:16:32;10.00;99.90
17348;DHT22;8791;50.876;4.342;2022-11-13T01:18:59;10.00;99.90
17348;DHT22;8791;50.876;4.342;2022-11-13T01:21:27;9.90;99.90
17348;DHT22;8791;50.876;4.342;2022-11-13T01:23:54;10.00;99.90
17348;DHT22;8791;50.876;4.342;2022-11-13T01:26:23;9.80;99.90
17348;DHT22;8791;50.876;4.342;2022-11-13T01:28:51;9.90;99.90
17348;DHT22;8791;50.876;4.342;2022-11-13T01:31:20;9.80;99.90
17348;DHT22;8791;50.876;4.342;2022-11-13T01:33:47;9.80;99.90
17348;DHT22;8791;50.876;4.342;2022-11-13T01:36:16;9.90;99.90
17348;DHT22;8791;50.876;4.342;2022-11-13T01:38:43;10.00;99.90
17348;DHT22;8791;50.876;4.342;2022-11-13T01:41:16;9.90;99.90
17348;DHT22;8791;50.876;4.342;2022-11-13T01:43:43;9.90;99.90
17348;DHT22;8791;50.876;4.342;2022-11-13T01:46:27;9.90;99.90
17348;DHT22;8791;50.876;4.342;2022-11-13T01:48:59;10.00;99.90
17348;DHT22;8791;50.876;4.342;2022-11-13T01:51:29;9.90;99.90
17348;DHT22;8791;50.876;4.342;2022-11-13T01:53:57;9.90;99.90
17348;DHT22;8791;50.876;4.342;2022-11-13T01:56:25;9.80;99.90
17348;DHT22;8791;50.876;4.342;2022-11-13T01:58:56;9.80;99.90
17348;DHT22;8791;50.876;4.342;2022-11-13T02:01:25;9.80;99.90
17348;DHT22;8791;50.876;4.342;2022-11-13T02:03:52;9.70;99.90
17348;DHT22;8791;50.876;4.342;2022-11-13T02:06:19;9.80;99.90
17348;DHT22;8791;50.876;4.342;2022-11-13T02:08:48;9.70;99.90
17348;DHT22;8791;50.876;4.342;2022-11-13T02:11:16;9.60;99.90
17348;DHT22;8791;50.876;4.342;2022-11-13T02:13:43;9.70;99.90
17348;DHT22;8791;50.876;4.342;2022-11-13T02:16:10;9.60;99.90
17348;DHT22;8791;50.876;4.342;2022-11-13T02:18:40;9.80;99.90
17348;DHT22;8791;50.876;4.342;2022-11-13T02:21:15;9.90;99.90
17348;DHT22;8791;50.876;4.342;2022-11-13T02:23:47;9.80;99.90
17348;DHT22;8791;50.876;4.342;2022-11-13T02:26:19;9.70;99.90
17348;DHT22;8791;50.876;4.342;2022-11-13T02:28:46;9.60;99.90
17348;DHT22;8791;50.876;4.342;2022-11-13T02:31:13;9.60;99.90
17348;DHT22;8791;50.876;4.342;2022-11-13T02:33:40;9.80;99.90
17348;DHT22;8791;50.876;4.342;2022-11-13T02:36:08;9.70;99.90
17348;DHT22;8791;50.876;4.342;2022-11-13T02:38:37;9.80;99.90
17348;DHT22;8791;50.876;4.342;2022-11-13T02:41:04;9.70;99.90
17348;DHT22;8791;50.876;4.342;2022-11-13T02:43:32;9.60;99.90
17348;DHT22;8791;50.876;4.342;2022-11-13T02:45:59;9.60;99.90
17348;DHT22;8791;50.876;4.342;2022-11-13T02:48:26;9.50;99.90
17348;DHT22;8791;50.876;4.342;2022-11-13T02:50:53;9.50;99.90
17348;DHT22;8791;50.876;4.342;2022-11-13T02:53:20;9.50;99.90
17348;DHT22;8791;50.876;4.342;2022-11-13T02:55:47;9.50;99.90
17348;DHT22;8791;50.876;4.342;2022-11-13T02:58:14;9.50;99.90
17348;DHT22;8791;50.876;4.342;2022-11-13T03:00:42;9.40;99.90
17348;DHT22;8791;50.876;4.342;2022-11-13T03:03:08;9.40;99.90
17348;DHT22;8791;50.876;4.342;2022-11-13T03:05:35;9.40;99.90
17348;DHT22;8791;50.876;4.342;2022-11-13T03:08:02;9.30;99.90
17348;DHT22;8791;50.876;4.342;2022-11-13T03:10:29;9.30;99.90
17348;DHT22;8791;50.876;4.342;2022-11-13T03:12:57;9.40;99.90
17348;DHT22;8791;50.876;4.342;2022-11-13T03:15:24;9.30;99.90
17348;DHT22;8791;50.876;4.342;2022-11-13T03:17:52;9.40;99.90
17348;DHT22;8791;50.876;4.342;2022-11-13T03:20:19;9.50;99.90
17348;DHT22;8791;50.876;4.342;2022-11-13T03:22:46;9.50;99.90
17348;DHT22;8791;50.876;4.342;2022-11-13T03:25:12;9.40;99.90
17348;DHT22;8791;50.876;4.342;2022-11-13T03:27:39;9.40;99.90
17348;DHT22;8791;50.876;4.342;2022-11-13T03:30:07;9.20;99.90
17348;DHT22;8791;50.876;4.342;2022-11-13T03:32:34;9.20;99.90
17348;DHT22;8791;50.876;4.342;2022-11-13T03:35:03;9.50;99.90
17348;DHT22;8791;50.876;4.342;2022-11-13T03:37:30;9.50;99.90
17348;DHT22;8791;50.876;4.342;2022-11-13T03:39:56;9.50;99.90
17348;DHT22;8791;50.876;4.342;2022-11-13T03:42:23;9.40;99.90
17348;DHT22;8791;50.876;4.342;2022-11-13T03:44:50;9.20;99.90
17348;DHT22;8791;50.876;4.342;2022-11-13T03:47:17;9.20;99.90
17348;DHT22;8791;50.876;4.342;2022-11-13T03:49:43;9.10;99.90
17348;DHT22;8791;50.876;4.342;2022-11-13T03:52:12;9.10;99.90
17348;DHT22;8791;50.876;4.342;2022-11-13T03:54:38;9.10;99.90
17348;DHT22;8791;50.876;4.342;2022-11-13T03:57:05;9.10;99.90
17348;DHT22;8791;50.876;4.342;2022-11-13T03:59:32;9.10;99.90
17348;DHT22;8791;50.876;4.342;2022-11-13T04:01:58;9.10;99.90
17348;DHT22;8791;50.876;4.342;2022-11-13T04:04:25;9.10;99.90
17348;DHT22;8791;50.876;4.342;2022-11-13T04:06:52;9.10;99.90
17348;DHT22;8791;50.876;4.342;2022-11-13T04:09:20;9.10;99.90
17348;DHT22;8791;50.876;4.342;2022-11-13T04:11:47;9.20;99.90
17348;DHT22;8791;50.876;4.342;2022-11-13T04:14:14;9.40;99.90
17348;DHT22;8791;50.876;4.342;2022-11-13T04:16:40;9.50;99.90
17348;DHT22;8791;50.876;4.342;2022-11-13T04:19:07;9.30;99.90
17348;DHT22;8791;50.876;4.342;2022-11-13T04:21:34;9.30;99.90
17348;DHT22;8791;50.876;4.342;2022-11-13T04:24:01;9.10;99.90
17348;DHT22;8791;50.876;4.342;2022-11-13T04:26:29;9.10;99.90
17348;DHT22;8791;50.876;4.342;2022-11-13T04:28:56;9.10;99.90
17348;DHT22;8791;50.876;4.342;2022-11-13T04:31:23;9.20;99.90
17348;DHT22;8791;50.876;4.342;2022-11-13T04:33:49;9.30;99.90
17348;DHT22;8791;50.876;4.342;2022-11-13T04:36:16;9.30;99.90
17348;DHT22;8791;50.876;4.342;2022-11-13T04:38:43;9.20;99.90
17348;DHT22;8791;50.876;4.342;2022-11-13T04:41:11;9.10;99.90
17348;DHT22;8791;50.876;4.342;2022-11-13T04:43:57;9.10;99.90
17348;DHT22;8791;50.876;4.342;2022-11-13T04:46:24;9.20;99.90
17348;DHT22;8791;50.876;4.342;2022-11-13T04:48:51;9.20;99.90
17348;DHT22;8791;50.876;4.342;2022-11-13T04:51:18;9.30;99.90
17348;DHT22;8791;50.876;4.342;2022-11-13T04:53:45;9.30;99.90
17348;DHT22;8791;50.876;4.342;2022-11-13T04:56:11;9.30;99.90
17348;DHT22;8791;50.876;4.342;2022-11-13T04:58:38;9.20;99.90
17348;DHT22;8791;50.876;4.342;2022-11-13T05:01:06;9.20;99.90
17348;DHT22;8791;50.876;4.342;2022-11-13T05:03:33;9.10;99.90
17348;DHT22;8791;50.876;4.342;2022-11-13T05:06:02;9.10;99.90
17348;DHT22;8791;50.876;4.342;2022-11-13T05:08:29;9.20;99.90
17348;DHT22;8791;50.876;4.342;2022-11-13T05:10:55;9.10;99.90
17348;DHT22;8791;50.876;4.342;2022-11-13T05:13:22;9.00;99.90
17348;DHT22;8791;50.876;4.342;2022-11-13T05:15:49;8.90;99.90
17348;DHT22;8791;50.876;4.342;2022-11-13T05:18:17;8.90;99.90
17348;DHT22;8791;50.876;4.342;2022-11-13T05:20:44;8.90;99.90
17348;DHT22;8791;50.876;4.342;2022-11-13T05:23:11;9.10;99.90
17348;DHT22;8791;50.876;4.342;2022-11-13T05:25:38;9.50;99.90
17348;DHT22;8791;50.876;4.342;2022-11-13T05:28:04;9.50;99.90
17348;DHT22;8791;50.876;4.342;2022-11-13T05:30:31;9.30;99.90
17348;DHT22;8791;50.876;4.342;2022-11-13T05:32:58;9.10;99.90
17348;DHT22;8791;50.876;4.342;2022-11-13T05:35:26;9.00;99.90
17348;DHT22;8791;50.876;4.342;2022-11-13T05:37:53;8.80;99.90
17348;DHT22;8791;50.876;4.342;2022-11-13T05:40:20;8.70;99.90
17348;DHT22;8791;50.876;4.342;2022-11-13T05:42:47;8.60;99.90
17348;DHT22;8791;50.876;4.342;2022-11-13T05:45:14;8.60;99.90
17348;DHT22;8791;50.876;4.342;2022-11-13T05:47:41;8.80;99.90
17348;DHT22;8791;50.876;4.342;2022-11-13T05:50:08;8.80;99.90
17348;DHT22;8791;50.876;4.342;2022-11-13T05:52:36;8.70;99.90
17348;DHT22;8791;50.876;4.342;2022-11-13T05:55:04;8.60;99.90
17348;DHT22;8791;50.876;4.342;2022-11-13T05:57:31;8.60;99.90
17348;DHT22;8791;50.876;4.342;2022-11-13T05:59:58;8.60;99.90
17348;DHT22;8791;50.876;4.342;2022-11-13T06:02:25;8.60;99.90
17348;DHT22;8791;50.876;4.342;2022-11-13T06:04:51;8.70;99.90
17348;DHT22;8791;50.876;4.342;2022-11-13T06:07:18;8.90;99.90
17348;DHT22;8791;50.876;4.342;2022-11-13T06:09:46;9.00;99.90
17348;DHT22;8791;50.876;4.342;2022-11-13T06:12:13;8.80;99.90
17348;DHT22;8791;50.876;4.342;2022-11-13T06:14:40;8.60;99.90
17348;DHT22;8791;50.876;4.342;2022-11-13T06:17:07;8.40;99.90
17348;DHT22;8791;50.876;4.342;2022-11-13T06:19:33;8.20;99.90
17348;DHT22;8791;50.876;4.342;2022-11-13T06:22:00;8.10;99.90
17348;DHT22;8791;50.876;4.342;2022-11-13T06:24:27;8.10;99.90
17348;DHT22;8791;50.876;4.342;2022-11-13T06:26:55;8.20;99.90
17348;DHT22;8791;50.876;4.342;2022-11-13T06:29:22;8.20;99.90
17348;DHT22;8791;50.876;4.342;2022-11-13T06:31:49;8.20;99.90
17348;DHT22;8791;50.876;4.342;2022-11-13T06:34:15;8.20;99.90
17348;DHT22;8791;50.876;4.342;2022-11-13T06:36:42;8.30;99.90
17348;DHT22;8791;50.876;4.342;2022-11-13T06:39:10;8.50;99.90
17348;DHT22;8791;50.876;4.342;2022-11-13T06:41:38;8.50;99.90
17348;DHT22;8791;50.876;4.342;2022-11-13T06:44:06;8.30;99.90
17348;DHT22;8791;50.876;4.342;2022-11-13T06:46:33;8.20;99.90
17348;DHT22;8791;50.876;4.342;2022-11-13T06:49:00;8.10;99.90
17348;DHT22;8791;50.876;4.342;2022-11-13T06:51:28;7.90;99.90
17348;DHT22;8791;50.876;4.342;2022-11-13T06:53:56;7.90;99.90
17348;DHT22;8791;50.876;4.342;2022-11-13T06:56:24;8.00;99.90
17348;DHT22;8791;50.876;4.342;2022-11-13T06:58:51;8.00;99.90
17348;DHT22;8791;50.876;4.342;2022-11-13T07:01:21;7.90;99.90
17348;DHT22;8791;50.876;4.342;2022-11-13T07:03:48;8.00;99.90
17348;DHT22;8791;50.876;4.342;2022-11-13T07:06:17;8.00;99.90
17348;DHT22;8791;50.876;4.342;2022-11-13T07:08:46;8.00;99.90
17348;DHT22;8791;50.876;4.342;2022-11-13T07:11:15;8.00;99.90
17348;DHT22;8791;50.876;4.342;2022-11-13T07:13:43;7.80;99.90
17348;DHT22;8791;50.876;4.342;2022-11-13T07:16:11;7.80;99.90
17348;DHT22;8791;50.876;4.342;2022-11-13T07:18:39;7.90;99.90
17348;DHT22;8791;50.876;4.342;2022-11-13T07:21:08;8.00;99.90
17348;DHT22;8791;50.876;4.342;2022-11-13T07:23:36;7.90;99.90
17348;DHT22;8791;50.876;4.342;2022-11-13T07:26:08;8.00;99.90
17348;DHT22;8791;50.876;4.342;2022-11-13T07:28:35;7.90;99.90
17348;DHT22;8791;50.876;4.342;2022-11-13T07:31:02;8.00;99.90
17348;DHT22;8791;50.876;4.342;2022-11-13T07:33:29;8.00;99.90
17348;DHT22;8791;50.876;4.342;2022-11-13T07:35:57;8.00;99.90
17348;DHT22;8791;50.876;4.342;2022-11-13T07:38:24;8.00;99.90
17348;DHT22;8791;50.876;4.342;2022-11-13T07:40:51;8.00;99.90
17348;DHT22;8791;50.876;4.342;2022-11-13T07:43:18;8.10;99.90
17348;DHT22;8791;50.876;4.342;2022-11-13T07:45:45;8.30;99.90
17348;DHT22;8791;50.876;4.342;2022-11-13T07:48:12;8.40;99.90
17348;DHT22;8791;50.876;4.342;2022-11-13T07:50:38;8.40;99.90
17348;DHT22;8791;50.876;4.342;2022-11-13T07:53:08;8.40;99.90
17348;DHT22;8791;50.876;4.342;2022-11-13T07:55:36;8.50;99.90
17348;DHT22;8791;50.876;4.342;2022-11-13T07:58:03;8.40;99.90
17348;DHT22;8791;50.876;4.342;2022-11-13T08:00:32;8.30;99.90
17348;DHT22;8791;50.876;4.342;2022-11-13T08:03:04;8.30;99.90
17348;DHT22;8791;50.876;4.342;2022-11-13T08:05:32;8.30;99.90
17348;DHT22;8791;50.876;4.342;2022-11-13T08:07:59;8.30;99.90
17348;DHT22;8791;50.876;4.342;2022-11-13T08:10:27;8.40;99.90
17348;DHT22;8791;50.876;4.342;2022-11-13T08:12:59;8.50;99.90
17348;DHT22;8791;50.876;4.342;2022-11-13T08:15:26;8.60;99.90
17348;DHT22;8791;50.876;4.342;2022-11-13T08:17:54;8.80;99.90
17348;DHT22;8791;50.876;4.342;2022-11-13T08:20:21;8.70;99.90
17348;DHT22;8791;50.876;4.342;2022-11-13T08:22:48;8.80;99.90
17348;DHT22;8791;50.876;4.342;2022-11-13T08:25:16;8.90;99.90
17348;DHT22;8791;50.876;4.342;2022-11-13T08:27:44;8.80;99.90
17348;DHT22;8791;50.876;4.342;2022-11-13T08:30:12;8.80;99.90
17348;DHT22;8791;50.876;4.342;2022-11-13T08:32:39;9.10;99.90
17348;DHT22;8791;50.876;4.342;2022-11-13T08:35:06;9.20;99.90
17348;DHT22;8791;50.876;4.342;2022-11-13T08:37:33;9.20;99.90
17348;DHT22;8791;50.876;4.342;2022-11-13T08:40:00;9.10;99.90
17348;DHT22;8791;50.876;4.342;2022-11-13T08:42:27;9.20;99.90
17348;DHT22;8791;50.876;4.342;2022-11-13T08:44:55;9.10;99.90
17348;DHT22;8791;50.876;4.342;2022-11-13T08:47:22;9.00;99.90
17348;DHT22;8791;50.876;4.342;2022-11-13T08:49:50;9.10;99.90
17348;DHT22;8791;50.876;4.342;2022-11-13T08:52:17;9.10;99.90
17348;DHT22;8791;50.876;4.342;2022-11-13T08:54:44;9.00;99.90
17348;DHT22;8791;50.876;4.342;2022-11-13T08:57:10;9.00;99.90
17348;DHT22;8791;50.876;4.342;2022-11-13T08:59:37;9.10;99.90
17348;DHT22;8791;50.876;4.342;2022-11-13T09:02:05;9.20;99.90
17348;DHT22;8791;50.876;4.342;2022-11-13T09:04:32;9.40;99.90
17348;DHT22;8791;50.876;4.342;2022-11-13T09:06:59;9.40;99.90
17348;DHT22;8791;50.876;4.342;2022-11-13T09:09:26;9.40;99.90
17348;DHT22;8791;50.876;4.342;2022-11-13T09:11:52;9.40;99.90
17348;DHT22;8791;50.876;4.342;2022-11-13T09:14:19;9.30;99.90
17348;DHT22;8791;50.876;4.342;2022-11-13T09:16:46;9.20;99.90
17348;DHT22;8791;50.876;4.342;2022-11-13T09:19:14;9.30;99.90
17348;DHT22;8791;50.876;4.342;2022-11-13T09:21:41;9.50;99.90
17348;DHT22;8791;50.876;4.342;2022-11-13T09:24:08;9.60;99.90
17348;DHT22;8791;50.876;4.342;2022-11-13T09:26:35;9.70;99.90
17348;DHT22;8791;50.876;4.342;2022-11-13T09:29:02;9.80;99.90
17348;DHT22;8791;50.876;4.342;2022-11-13T09:31:29;9.80;99.90
17348;DHT22;8791;50.876;4.342;2022-11-13T09:33:55;9.80;99.90
17348;DHT22;8791;50.876;4.342;2022-11-13T09:36:24;9.90;99.90
17348;DHT22;8791;50.876;4.342;2022-11-13T09:38:50;10.10;99.90
17348;DHT22;8791;50.876;4.342;2022-11-13T09:41:20;10.00;99.90
17348;DHT22;8791;50.876;4.342;2022-11-13T09:43:51;10.20;99.90
17348;DHT22;8791;50.876;4.342;2022-11-13T09:46:20;10.30;99.90
17348;DHT22;8791;50.876;4.342;2022-11-13T09:48:54;10.30;99.90
17348;DHT22;8791;50.876;4.342;2022-11-13T09:51:26;10.20;99.90
17348;DHT22;8791;50.876;4.342;2022-11-13T09:53:54;10.30;99.90
17348;DHT22;8791;50.876;4.342;2022-11-13T09:56:29;10.50;99.90
17348;DHT22;8791;50.876;4.342;2022-11-13T09:59:06;10.70;99.90
17348;DHT22;8791;50.876;4.342;2022-11-13T10:01:48;10.80;99.90
17348;DHT22;8791;50.876;4.342;2022-11-13T10:04:21;10.80;99.90
17348;DHT22;8791;50.876;4.342;2022-11-13T10:07:10;10.80;99.90
17348;DHT22;8791;50.876;4.342;2022-11-13T10:09:52;10.90;99.90
17348;DHT22;8791;50.876;4.342;2022-11-13T10:12:20;11.00;99.90
17348;DHT22;8791;50.876;4.342;2022-11-13T10:14:51;11.20;99.90
17348;DHT22;8791;50.876;4.342;2022-11-13T10:17:22;11.30;99.90
17348;DHT22;8791;50.876;4.342;2022-11-13T10:19:55;11.40;99.90
17348;DHT22;8791;50.876;4.342;2022-11-13T10:22:28;11.40;99.90
17348;DHT22;8791;50.876;4.342;2022-11-13T10:25:02;11.50;99.90
17348;DHT22;8791;50.876;4.342;2022-11-13T10:27:30;11.40;99.90
17348;DHT22;8791;50.876;4.342;2022-11-13T10:29:57;11.40;99.90
17348;DHT22;8791;50.876;4.342;2022-11-13T10:32:25;11.50;99.90
17348;DHT22;8791;50.876;4.342;2022-11-13T10:34:55;11.60;99.90
17348;DHT22;8791;50.876;4.342;2022-11-13T10:37:38;11.70;99.90
17348;DHT22;8791;50.876;4.342;2022-11-13T10:40:08;11.90;99.90
17348;DHT22;8791;50.876;4.342;2022-11-13T10:42:38;11.90;99.90
17348;DHT22;8791;50.876;4.342;2022-11-13T10:45:13;12.10;99.90
17348;DHT22;8791;50.876;4.342;2022-11-13T10:47:45;12.20;99.90
17348;DHT22;8791;50.876;4.342;2022-11-13T10:50:20;12.20;99.90
17348;DHT22;8791;50.876;4.342;2022-11-13T10:52:50;12.20;99.90
17348;DHT22;8791;50.876;4.342;2022-11-13T10:55:23;12.20;99.90
17348;DHT22;8791;50.876;4.342;2022-11-13T10:57:56;12.20;99.90
17348;DHT22;8791;50.876;4.342;2022-11-13T11:00:25;12.10;99.90
17348;DHT22;8791;50.876;4.342;2022-11-13T11:02:55;12.20;99.90
17348;DHT22;8791;50.876;4.342;2022-11-13T11:05:23;12.40;99.90
17348;DHT22;8791;50.876;4.342;2022-11-13T11:07:52;12.40;99.90
17348;DHT22;8791;50.876;4.342;2022-11-13T11:10:22;12.50;99.90
17348;DHT22;8791;50.876;4.342;2022-11-13T11:12:52;12.70;99.90
17348;DHT22;8791;50.876;4.342;2022-11-13T11:15:23;12.80;99.90
17348;DHT22;8791;50.876;4.342;2022-11-13T11:17:51;12.90;99.90
17348;DHT22;8791;50.876;4.342;2022-11-13T11:20:24;12.90;99.90
17348;DHT22;8791;50.876;4.342;2022-11-13T11:22:57;13.00;99.90
17348;DHT22;8791;50.876;4.342;2022-11-13T11:25:32;13.20;99.90
17348;DHT22;8791;50.876;4.342;2022-11-13T11:28:04;13.20;99.90
17348;DHT22;8791;50.876;4.342;2022-11-13T11:30:39;13.40;99.90
17348;DHT22;8791;50.876;4.342;2022-11-13T11:33:12;13.40;99.90
17348;DHT22;8791;50.876;4.342;2022-11-13T11:35:43;13.50;99.90
17348;DHT22;8791;50.876;4.342;2022-11-13T11:38:25;13.50;99.90
17348;DHT22;8791;50.876;4.342;2022-11-13T11:40:55;13.60;99.90
17348;DHT22;8791;50.876;4.342;2022-11-13T11:43:35;13.70;99.90
17348;DHT22;8791;50.876;4.342;2022-11-13T11:46:08;13.70;99.90
17348;DHT22;8791;50.876;4.342;2022-11-13T11:48:35;13.80;99.90
17348;DHT22;8791;50.876;4.342;2022-11-13T11:51:06;13.90;99.90
17348;DHT22;8791;50.876;4.342;2022-11-13T11:53:41;14.10;99.90
17348;DHT22;8791;50.876;4.342;2022-11-13T11:56:22;14.20;99.90
17348;DHT22;8791;50.876;4.342;2022-11-13T11:59:03;14.20;99.90
17348;DHT22;8791;50.876;4.342;2022-11-13T12:04:39;14.30;99.90
17348;DHT22;8791;50.876;4.342;2022-11-13T12:07:26;14.50;99.90
17348;DHT22;8791;50.876;4.342;2022-11-13T12:10:01;14.60;99.90
17348;DHT22;8791;50.876;4.342;2022-11-13T12:12:42;14.70;99.90
17348;DHT22;8791;50.876;4.342;2022-11-13T12:15:17;14.80;99.90
17348;DHT22;8791;50.876;4.342;2022-11-13T12:17:52;14.70;99.90
17348;DHT22;8791;50.876;4.342;2022-11-13T12:20:29;14.80;99.90
17348;DHT22;8791;50.876;4.342;2022-11-13T12:23:07;14.90;99.90
17348;DHT22;8791;50.876;4.342;2022-11-13T12:25:44;14.90;99.90
17348;DHT22;8791;50.876;4.342;2022-11-13T12:28:16;15.00;99.90
17348;DHT22;8791;50.876;4.342;2022-11-13T12:30:54;14.90;99.90
17348;DHT22;8791;50.876;4.342;2022-11-13T12:33:27;15.20;99.90
17348;DHT22;8791;50.876;4.342;2022-11-13T12:35:57;15.30;99.90
17348;DHT22;8791;50.876;4.342;2022-11-13T12:38:33;15.40;99.90
17348;DHT22;8791;50.876;4.342;2022-11-13T12:41:24;15.40;99.90
17348;DHT22;8791;50.876;4.342;2022-11-13T12:44:15;15.40;99.90
17348;DHT22;8791;50.876;4.342;2022-11-13T12:46:44;15.40;99.90
17348;DHT22;8791;50.876;4.342;2022-11-13T12:49:26;15.40;99.90
17348;DHT22;8791;50.876;4.342;2022-11-13T12:51:55;15.40;99.90
17348;DHT22;8791;50.876;4.342;2022-11-13T12:54:27;15.20;99.90
17348;DHT22;8791;50.876;4.342;2022-11-13T12:57:06;15.30;99.90
17348;DHT22;8791;50.876;4.342;2022-11-13T12:59:35;15.50;99.90
17348;DHT22;8791;50.876;4.342;2022-11-13T13:02:16;15.50;99.90
17348;DHT22;8791;50.876;4.342;2022-11-13T13:04:58;15.50;99.90
17348;DHT22;8791;50.876;4.342;2022-11-13T13:07:44;15.50;99.90
17348;DHT22;8791;50.876;4.342;2022-11-13T13:10:18;15.50;99.90
17348;DHT22;8791;50.876;4.342;2022-11-13T13:12:56;15.50;99.90
17348;DHT22;8791;50.876;4.342;2022-11-13T13:15:31;15.60;99.90
17348;DHT22;8791;50.876;4.342;2022-11-13T13:18:09;15.60;99.90
17348;DHT22;8791;50.876;4.342;2022-11-13T13:20:37;15.40;99.90
17348;DHT22;8791;50.876;4.342;2022-11-13T13:23:05;15.50;99.90
17348;DHT22;8791;50.876;4.342;2022-11-13T13:25:35;15.50;99.90
17348;DHT22;8791;50.876;4.342;2022-11-13T13:28:17;15.50;99.90
17348;DHT22;8791;50.876;4.342;2022-11-13T13:30:53;15.50;99.90
17348;DHT22;8791;50.876;4.342;2022-11-13T13:33:30;15.60;99.90
17348;DHT22;8791;50.876;4.342;2022-11-13T13:36:09;15.50;99.90
17348;DHT22;8791;50.876;4.342;2022-11-13T13:38:44;15.50;99.90
17348;DHT22;8791;50.876;4.342;2022-11-13T13:41:23;15.60;99.90
17348;DHT22;8791;50.876;4.342;2022-11-13T13:44:03;15.60;99.90
17348;DHT22;8791;50.876;4.342;2022-11-13T13:46:35;15.60;99.90
17348;DHT22;8791;50.876;4.342;2022-11-13T13:49:04;15.50;99.90
17348;DHT22;8791;50.876;4.342;2022-11-13T13:51:38;15.70;99.90
17348;DHT22;8791;50.876;4.342;2022-11-13T13:54:07;15.80;99.90
17348;DHT22;8791;50.876;4.342;2022-11-13T13:56:39;15.80;99.90
17348;DHT22;8791;50.876;4.342;2022-11-13T13:59:14;15.90;99.90
17348;DHT22;8791;50.876;4.342;2022-11-13T14:01:52;15.80;99.90
17348;DHT22;8791;50.876;4.342;2022-11-13T14:04:20;15.70;99.90
17348;DHT22;8791;50.876;4.342;2022-11-13T14:06:49;15.70;99.90
17348;DHT22;8791;50.876;4.342;2022-11-13T14:09:19;15.80;99.90
17348;DHT22;8791;50.876;4.342;2022-11-13T14:11:46;15.80;99.90
17348;DHT22;8791;50.876;4.342;2022-11-13T14:14:18;15.80;99.90
17348;DHT22;8791;50.876;4.342;2022-11-13T14:16:47;15.90;99.90
17348;DHT22;8791;50.876;4.342;2022-11-13T14:19:14;15.70;99.90
17348;DHT22;8791;50.876;4.342;2022-11-13T14:21:42;15.70;99.90
17348;DHT22;8791;50.876;4.342;2022-11-13T14:24:14;15.70;99.90
17348;DHT22;8791;50.876;4.342;2022-11-13T14:26:42;15.80;99.90
17348;DHT22;8791;50.876;4.342;2022-11-13T14:29:21;16.00;99.90
17348;DHT22;8791;50.876;4.342;2022-11-13T14:31:51;16.00;99.90
17348;DHT22;8791;50.876;4.342;2022-11-13T14:34:21;15.80;99.90
17348;DHT22;8791;50.876;4.342;2022-11-13T14:36:50;15.80;99.90
17348;DHT22;8791;50.876;4.342;2022-11-13T14:39:22;15.80;99.90
17348;DHT22;8791;50.876;4.342;2022-11-13T14:41:52;15.90;99.90
17348;DHT22;8791;50.876;4.342;2022-11-13T14:44:31;15.80;99.90
17348;DHT22;8791;50.876;4.342;2022-11-13T14:46:59;15.80;99.90
17348;DHT22;8791;50.876;4.342;2022-11-13T14:49:29;16.00;99.90
17348;DHT22;8791;50.876;4.342;2022-11-13T14:51:56;15.90;99.90
17348;DHT22;8791;50.876;4.342;2022-11-13T14:54:30;15.90;99.90
17348;DHT22;8791;50.876;4.342;2022-11-13T14:57:06;15.70;99.90
17348;DHT22;8791;50.876;4.342;2022-11-13T14:59:35;15.70;99.90
17348;DHT22;8791;50.876;4.342;2022-11-13T15:02:03;15.60;99.90
17348;DHT22;8791;50.876;4.342;2022-11-13T15:04:31;15.60;99.90
17348;DHT22;8791;50.876;4.342;2022-11-13T15:06:59;15.80;99.90
17348;DHT22;8791;50.876;4.342;2022-11-13T15:09:29;15.90;99.90
17348;DHT22;8791;50.876;4.342;2022-11-13T15:11:56;15.70;99.90
17348;DHT22;8791;50.876;4.342;2022-11-13T15:14:23;15.50;99.90
17348;DHT22;8791;50.876;4.342;2022-11-13T15:16:52;15.30;99.90
17348;DHT22;8791;50.876;4.342;2022-11-13T15:19:24;15.40;99.90
17348;DHT22;8791;50.876;4.342;2022-11-13T15:21:53;15.30;99.90
17348;DHT22;8791;50.876;4.342;2022-11-13T15:24:21;15.30;99.90
17348;DHT22;8791;50.876;4.342;2022-11-13T15:26:47;15.60;99.90
17348;DHT22;8791;50.876;4.342;2022-11-13T15:29:14;15.70;99.90
17348;DHT22;8791;50.876;4.342;2022-11-13T15:31:43;15.60;99.90
17348;DHT22;8791;50.876;4.342;2022-11-13T15:34:13;15.50;99.90
17348;DHT22;8791;50.876;4.342;2022-11-13T15:36:40;15.50;99.90
17348;DHT22;8791;50.876;4.342;2022-11-13T15:39:08;15.40;99.90
17348;DHT22;8791;50.876;4.342;2022-11-13T15:41:35;15.40;99.90
17348;DHT22;8791;50.876;4.342;2022-11-13T15:44:06;15.10;99.90
17348;DHT22;8791;50.876;4.342;2022-11-13T15:46:36;15.00;99.90
17348;DHT22;8791;50.876;4.342;2022-11-13T15:49:02;15.10;99.90
17348;DHT22;8791;50.876;4.342;2022-11-13T15:51:33;15.10;99.90
17348;DHT22;8791;50.876;4.342;2022-11-13T15:54:06;14.80;99.90
17348;DHT22;8791;50.876;4.342;2022-11-13T15:56:36;14.60;99.90
17348;DHT22;8791;50.876;4.342;2022-11-13T15:59:02;14.60;99.90
17348;DHT22;8791;50.876;4.342;2022-11-13T16:01:29;14.50;99.90
17348;DHT22;8791;50.876;4.342;2022-11-13T16:03:56;14.50;99.90
17348;DHT22;8791;50.876;4.342;2022-11-13T16:06:27;14.40;99.90
17348;DHT22;8791;50.876;4.342;2022-11-13T16:08:56;14.30;99.90
17348;DHT22;8791;50.876;4.342;2022-11-13T16:11:23;14.30;99.90